»·PEaware :: N32314 KLAX-KSAN

N32314 :: KLAX-KSAN

FLIGHT INFORMATION

Flight Status: Arrived
Operator: Privately registered:
United States
More flights under this callsign
Pilot: John O. (31453)
Aircraft: CESSNA 172 SKYHAWK
(C172)
More flights by this aircraft type
Origin: KLAX Los Angeles Intl
United States
Destination: KSAN San Diego Intl-Lindbergh
United States
More flights between these airports :: More routes between these airports
Route: +DIRECT
File this flight plan on PilotEdge
Remarks:
Altitude:
(Current/Filed)
7,500ft
Speed:
(Current/Filed)
110kts
Departed: 30-Sep-20 02:29 PM
Arrived: 30-Sep-20 03:31 PM
Distance/Time
Traveled:
95nm/1:01
Distance/Time
To Go:
Arrived

Flight Plot

Page will automatically refresh every two minutes.


Map Options




Map Legend


Flown Route
Filed Route
Departure Airport
Arrival Airport
Navaid (VOR, NDB)
Fix

Horizontal Profiles

Position Reports

Time Latitude Longitude Heading Altitude Ground
Speed
30-Sep-20 14:19 33.933890 -118.392668 5 120ft 0kts
30-Sep-20 14:20 33.933890 -118.392668 5 120ft 0kts
30-Sep-20 14:21 33.933890 -118.392668 5 120ft 0kts
30-Sep-20 14:22 33.933890 -118.392668 5 120ft 0kts
30-Sep-20 14:23 33.933890 -118.392668 5 120ft 0kts
30-Sep-20 14:24 33.934352 -118.392331 353 120ft 12kts
30-Sep-20 14:25 33.935674 -118.387151 83 120ft 20kts
30-Sep-20 14:26 33.936448 -118.382777 357 120ft 0kts
30-Sep-20 14:27 33.937307 -118.383267 270 120ft 12kts
30-Sep-20 14:28 33.935155 -118.403600 261 429ft 89kts
30-Sep-20 14:29 33.930906 -118.431875 255 1185ft 86kts
30-Sep-20 14:30 33.909622 -118.429568 157 1777ft 99kts
30-Sep-20 14:31 33.884452 -118.414000 139 2257ft 103kts
30-Sep-20 14:32 33.870406 -118.387195 114 2880ft 91kts
30-Sep-20 14:33 33.861256 -118.359821 108 3499ft 95kts
30-Sep-20 14:34 33.850097 -118.328981 124 3604ft 105kts
30-Sep-20 14:35 33.832472 -118.301871 133 3522ft 102kts
30-Sep-20 14:36 33.813676 -118.274758 132 3533ft 104kts
30-Sep-20 14:37 33.792999 -118.249600 139 3593ft 105kts
30-Sep-20 14:38 33.768957 -118.228888 147 3579ft 107kts
30-Sep-20 14:39 33.746866 -118.204472 144 3551ft 108kts
30-Sep-20 14:40 33.721277 -118.186021 138 3529ft 108kts
30-Sep-20 14:41 33.699976 -118.160869 151 3518ft 107kts
30-Sep-20 14:42 33.673134 -118.145308 150 3581ft 107kts
30-Sep-20 14:43 33.646468 -118.129296 154 3623ft 107kts
30-Sep-20 14:44 33.619027 -118.113944 153 3608ft 108kts
30-Sep-20 14:45 33.591335 -118.099514 155 3593ft 108kts
30-Sep-20 14:46 33.565516 -118.084642 153 4068ft 87kts
30-Sep-20 14:47 33.543665 -118.072179 154 4614ft 86kts
30-Sep-20 14:48 33.524231 -118.056175 142 5173ft 81kts
30-Sep-20 14:49 33.513040 -118.032027 95 5538ft 91kts
30-Sep-20 14:50 33.505849 -118.000953 112 5583ft 100kts
30-Sep-20 14:51 33.492908 -117.971572 116 5664ft 101kts
30-Sep-20 14:52 33.477603 -117.942204 128 5642ft 105kts
30-Sep-20 14:53 33.457733 -117.915881 138 5568ft 106kts
30-Sep-20 14:54 33.441825 -117.886529 111 5523ft 105kts
30-Sep-20 14:55 33.426874 -117.855941 124 5512ft 106kts
30-Sep-20 14:56 33.409194 -117.827704 131 5557ft 106kts
30-Sep-20 14:57 33.393221 -117.797910 122 5599ft 106kts
30-Sep-20 14:58 33.377376 -117.768097 121 5629ft 106kts
30-Sep-20 14:59 33.362070 -117.737605 123 5597ft 107kts
30-Sep-20 15:00 33.344927 -117.708227 122 5564ft 107kts
30-Sep-20 15:01 33.330284 -117.677074 119 5534ft 107kts
30-Sep-20 15:02 33.315272 -117.646092 119 5517ft 107kts
30-Sep-20 15:04 33.299000 -117.616265 119 5530ft 107kts
30-Sep-20 15:05 33.278384 -117.591167 147 5546ft 106kts
30-Sep-20 15:06 33.258247 -117.565347 123 5566ft 107kts
30-Sep-20 15:07 33.238142 -117.539244 135 5578ft 107kts
30-Sep-20 15:08 33.216582 -117.514890 133 5600ft 107kts
30-Sep-20 15:09 33.196169 -117.488845 128 5601ft 107kts
30-Sep-20 15:10 33.176697 -117.463920 132 5582ft 107kts
30-Sep-20 15:11 33.154610 -117.440105 132 5568ft 107kts
30-Sep-20 15:12 33.133924 -117.414581 136 5554ft 106kts
30-Sep-20 15:13 33.113997 -117.388138 133 5541ft 106kts
30-Sep-20 15:14 33.093619 -117.362314 132 5528ft 107kts
30-Sep-20 15:15 33.072438 -117.337267 137 5518ft 106kts
30-Sep-20 15:16 33.051000 -117.316159 146 5498ft 107kts
30-Sep-20 15:17 33.030126 -117.290849 134 5500ft 106kts
30-Sep-20 15:18 33.008841 -117.266374 156 5489ft 107kts
30-Sep-20 15:19 32.980362 -117.268645 208 4561ft 97kts
30-Sep-20 15:20 32.951870 -117.271650 171 3585ft 92kts
30-Sep-20 15:20 32.931246 -117.270059 193 3593ft 88kts
30-Sep-20 15:22 32.901146 -117.267713 166 3568ft 99kts
30-Sep-20 15:22 32.878601 -117.266479 184 3502ft 98kts
30-Sep-20 15:23 32.853797 -117.256608 141 3501ft 98kts
30-Sep-20 15:25 32.826978 -117.236293 160 3612ft 98kts
30-Sep-20 15:26 32.800644 -117.227143 157 3216ft 108kts
30-Sep-20 15:26 32.778038 -117.216283 165 2200ft 104kts
30-Sep-20 15:27 32.751040 -117.203504 143 881ft 107kts
30-Sep-20 15:28 32.740094 -117.175153 99 685ft 88kts
30-Sep-20 15:29 32.729350 -117.173122 282 243ft 75kts
30-Sep-20 15:30 32.732519 -117.188629 209 20ft 7kts
30-Sep-20 15:31 32.731971 -117.190729 196 20ft 13kts
30-Sep-20 15:32 32.731724 -117.190529 101 20ft 0kts
30-Sep-20 15:33 32.731724 -117.190529 101 20ft 0kts
30-Sep-20 15:34 32.731724 -117.190529 101 20ft 0kts
30-Sep-20 15:35 32.731724 -117.190529 101 20ft 0kts
30-Sep-20 15:36 32.731724 -117.190529 101 20ft 0kts
30-Sep-20 15:37 32.731724 -117.190529 101 20ft 0kts
30-Sep-20 15:38 32.731724 -117.190529 101 20ft 0kts

Navigation Log

Ident Type
Flight plan parsing failed, navigation log unavailable